Aeroporto :
LOGIN :

Iscrizione | Disclaimer

   EN    FR    IT 

 










Sommario :    VFR   VFR Marginale   IFR   IFR Intensivo   IFR Molto Intensivo
Visibilità : 
Base nubi : 
>= 8 km
>= 3000ft
5 / 8 km
1000 / 3000 ft
1500m / 5 km
500 / 1000 ft
800 / 1500m
200 / 500 ft
< 800m
< 200 ft
Simboli :   Temporali  Nebbia  Neve Forte  Precipitazioni Forti  Vento > 20 kt
SIGMETs :   Varie  Temporali  Ghiacco  Turbolenza  Onda orograficha  Ceneri Vulcaniche






- Altitudine del aeroporto : 1460 ft


LSMA - Alpnach

ULTIMO METAR :
  • 050720Z 19003KT 150V220 9999 FEW002 BKN055 00/M00 Q1009 RMK BLU

METARs OBSOLETI :
  • 050650Z 22004KT 140V280 9999 BKN050 BKN070 00/M00 Q1009 RMK BLU
  • 050620Z AUTO 22003KT 170V280 7000NDV BKN054 OVC095 M00/M01 Q1009 RMK
  • 050550Z AUTO VRB02KT 6000NDV FEW045 OVC054 M00/M01 Q1009 RMK
  • 050520Z AUTO VRB01KT 6000NDV BKN057 BKN083 BKN098 M02/M02 Q1009 RMK
  • 050450Z AUTO 20003KT 170V240 3800NDV BR FEW090 M02/M03 Q1009 RMK
  • 050420Z AUTO 00000KT 3800NDV BR FEW088 SCT110 M02/M03 Q1009 RMK
  • 050350Z AUTO VRB02KT 3800NDV BR FEW091 BKN110 M01/M02 Q1008 RMK
  • 050320Z AUTO VRB04KT 5000NDV BR SCT100 M02/M02 Q1008 RMK
  • 050250Z AUTO 18003KT 3700NDV BR FEW078 BKN100 M01/M02 Q1008 RMK

Previsioni scadute.



MetMap, La meteo Aeronautica in un colpo d'occhio ! - Copyright ORBIFLY Dicembre 2007 - Disclaimer

ORBIFLY MET'MAP TEAM :

Programmazione e sviluppo : Alexandra Zaïnal
Concezione : Baudouin d'Aumeries
Supporto tecnico e logistico : Manuel Goepfert
Aiuto : Marc-Olivier Méhu
Aiuto per la traduzione : Arnaldo La Scala




FONTI E CREDITI :

   NOAA